sensor_id;sensor_type;location;lat;lon;timestamp;temperature;humidity
26107;DHT22;13866;50.748;12.630;2024-01-16T00:00:11;-0.90;1.00
26107;DHT22;13866;50.748;12.630;2024-01-16T00:02:37;-0.90;99.90
26107;DHT22;13866;50.748;12.630;2024-01-16T00:05:03;-0.90;1.00
26107;DHT22;13866;50.748;12.630;2024-01-16T00:07:28;-0.90;1.00
26107;DHT22;13866;50.748;12.630;2024-01-16T00:09:53;-0.90;1.00
26107;DHT22;13866;50.748;12.630;2024-01-16T00:12:20;-0.90;1.00
26107;DHT22;13866;50.748;12.630;2024-01-16T00:14:45;-0.90;1.00
26107;DHT22;13866;50.748;12.630;2024-01-16T00:17:11;-0.90;1.00
26107;DHT22;13866;50.748;12.630;2024-01-16T00:19:36;-1.00;98.00
26107;DHT22;13866;50.748;12.630;2024-01-16T00:22:02;-1.00;1.00
26107;DHT22;13866;50.748;12.630;2024-01-16T00:24:30;-0.90;1.00
26107;DHT22;13866;50.748;12.630;2024-01-16T00:26:55;-0.90;1.00
26107;DHT22;13866;50.748;12.630;2024-01-16T00:29:21;-1.00;99.90
26107;DHT22;13866;50.748;12.630;2024-01-16T00:31:46;-1.00;1.00
26107;DHT22;13866;50.748;12.630;2024-01-16T00:34:12;-1.00;1.00
26107;DHT22;13866;50.748;12.630;2024-01-16T00:36:37;-1.00;1.00
26107;DHT22;13866;50.748;12.630;2024-01-16T00:39:03;-1.00;1.00
26107;DHT22;13866;50.748;12.630;2024-01-16T00:41:29;-1.00;99.90
26107;DHT22;13866;50.748;12.630;2024-01-16T00:43:54;-0.90;1.00
26107;DHT22;13866;50.748;12.630;2024-01-16T00:46:20;-0.90;1.00
26107;DHT22;13866;50.748;12.630;2024-01-16T00:48:45;-0.90;1.00
26107;DHT22;13866;50.748;12.630;2024-01-16T00:51:11;-0.90;1.00
26107;DHT22;13866;50.748;12.630;2024-01-16T00:53:40;-0.80;99.90
26107;DHT22;13866;50.748;12.630;2024-01-16T00:56:06;-0.80;99.90
26107;DHT22;13866;50.748;12.630;2024-01-16T00:58:31;-0.80;99.90
26107;DHT22;13866;50.748;12.630;2024-01-16T01:00:57;-0.80;99.90
26107;DHT22;13866;50.748;12.630;2024-01-16T01:03:22;-0.80;99.90
26107;DHT22;13866;50.748;12.630;2024-01-16T01:05:48;-0.80;99.90
26107;DHT22;13866;50.748;12.630;2024-01-16T01:08:13;-0.80;99.90
26107;DHT22;13866;50.748;12.630;2024-01-16T01:10:39;-0.80;99.90
26107;DHT22;13866;50.748;12.630;2024-01-16T01:13:04;-0.70;99.90
26107;DHT22;13866;50.748;12.630;2024-01-16T01:15:30;-0.80;99.90
26107;DHT22;13866;50.748;12.630;2024-01-16T01:17:55;-0.80;99.90
26107;DHT22;13866;50.748;12.630;2024-01-16T01:20:21;-0.70;60.90
26107;DHT22;13866;50.748;12.630;2024-01-16T01:22:47;-0.70;52.70
26107;DHT22;13866;50.748;12.630;2024-01-16T01:25:12;-0.70;25.10
26107;DHT22;13866;50.748;12.630;2024-01-16T01:27:38;-0.70;21.60
26107;DHT22;13866;50.748;12.630;2024-01-16T01:30:06;-0.70;1.00
26107;DHT22;13866;50.748;12.630;2024-01-16T01:32:32;-0.70;1.00
26107;DHT22;13866;50.748;12.630;2024-01-16T01:34:59;-0.60;1.00
26107;DHT22;13866;50.748;12.630;2024-01-16T01:37:24;-0.60;1.00
26107;DHT22;13866;50.748;12.630;2024-01-16T01:39:50;-0.60;1.00
26107;DHT22;13866;50.748;12.630;2024-01-16T01:42:15;-0.60;1.00
26107;DHT22;13866;50.748;12.630;2024-01-16T01:44:41;-0.60;1.00
26107;DHT22;13866;50.748;12.630;2024-01-16T01:47:07;-0.60;1.00
26107;DHT22;13866;50.748;12.630;2024-01-16T01:49:33;-0.60;1.00
26107;DHT22;13866;50.748;12.630;2024-01-16T01:52:00;-0.60;1.00
26107;DHT22;13866;50.748;12.630;2024-01-16T01:54:26;-0.60;1.00
26107;DHT22;13866;50.748;12.630;2024-01-16T01:56:52;-0.50;1.00
26107;DHT22;13866;50.748;12.630;2024-01-16T01:59:18;-0.60;1.00
26107;DHT22;13866;50.748;12.630;2024-01-16T02:01:48;-0.60;1.00
26107;DHT22;13866;50.748;12.630;2024-01-16T02:04:15;-0.60;1.00
26107;DHT22;13866;50.748;12.630;2024-01-16T02:23:33;-0.50;1.00
26107;DHT22;13866;50.748;12.630;2024-01-16T02:25:59;-0.60;1.00
26107;DHT22;13866;50.748;12.630;2024-01-16T02:28:24;-0.50;1.00
26107;DHT22;13866;50.748;12.630;2024-01-16T02:30:50;-0.50;1.00
26107;DHT22;13866;50.748;12.630;2024-01-16T02:33:16;-0.50;1.00
26107;DHT22;13866;50.748;12.630;2024-01-16T02:35:41;-0.50;1.00
26107;DHT22;13866;50.748;12.630;2024-01-16T02:38:07;-0.50;1.00
26107;DHT22;13866;50.748;12.630;2024-01-16T02:40:32;-0.50;1.00
26107;DHT22;13866;50.748;12.630;2024-01-16T02:42:58;-0.50;1.00
26107;DHT22;13866;50.748;12.630;2024-01-16T02:45:23;-0.50;1.00
26107;DHT22;13866;50.748;12.630;2024-01-16T02:47:48;-0.50;1.00
26107;DHT22;13866;50.748;12.630;2024-01-16T02:50:14;-0.50;1.00
26107;DHT22;13866;50.748;12.630;2024-01-16T02:52:40;-0.50;1.00
26107;DHT22;13866;50.748;12.630;2024-01-16T02:55:06;-0.50;1.00
26107;DHT22;13866;50.748;12.630;2024-01-16T02:57:31;-0.40;1.00
26107;DHT22;13866;50.748;12.630;2024-01-16T02:59:57;-0.40;1.00
26107;DHT22;13866;50.748;12.630;2024-01-16T03:02:22;-0.50;1.00
26107;DHT22;13866;50.748;12.630;2024-01-16T03:04:49;-0.40;1.00
26107;DHT22;13866;50.748;12.630;2024-01-16T03:07:14;-0.40;1.00
26107;DHT22;13866;50.748;12.630;2024-01-16T03:09:40;-0.40;1.00
26107;DHT22;13866;50.748;12.630;2024-01-16T03:12:05;-0.40;1.00
26107;DHT22;13866;50.748;12.630;2024-01-16T03:14:31;-0.40;1.00
26107;DHT22;13866;50.748;12.630;2024-01-16T03:17:01;-0.40;1.00
26107;DHT22;13866;50.748;12.630;2024-01-16T03:19:27;-0.40;1.00
26107;DHT22;13866;50.748;12.630;2024-01-16T03:21:52;-0.50;1.00
26107;DHT22;13866;50.748;12.630;2024-01-16T03:24:18;-0.50;1.00
26107;DHT22;13866;50.748;12.630;2024-01-16T03:26:45;-0.50;1.00
26107;DHT22;13866;50.748;12.630;2024-01-16T03:29:10;-0.50;1.00
26107;DHT22;13866;50.748;12.630;2024-01-16T03:31:36;-0.50;1.00
26107;DHT22;13866;50.748;12.630;2024-01-16T03:34:02;-0.50;1.00
26107;DHT22;13866;50.748;12.630;2024-01-16T03:36:27;-0.50;1.00
26107;DHT22;13866;50.748;12.630;2024-01-16T03:38:53;-0.50;1.00
26107;DHT22;13866;50.748;12.630;2024-01-16T03:41:18;-0.50;1.00
26107;DHT22;13866;50.748;12.630;2024-01-16T03:43:44;-0.50;1.00
26107;DHT22;13866;50.748;12.630;2024-01-16T03:46:13;-0.40;1.00
26107;DHT22;13866;50.748;12.630;2024-01-16T03:48:38;-0.50;1.00
26107;DHT22;13866;50.748;12.630;2024-01-16T03:54:26;-0.50;1.00
26107;DHT22;13866;50.748;12.630;2024-01-16T03:56:53;-0.50;1.00
26107;DHT22;13866;50.748;12.630;2024-01-16T03:59:18;-0.40;1.00
26107;DHT22;13866;50.748;12.630;2024-01-16T04:01:44;-0.40;1.00
26107;DHT22;13866;50.748;12.630;2024-01-16T04:04:11;-0.50;1.00
26107;DHT22;13866;50.748;12.630;2024-01-16T04:06:36;-0.50;1.00
26107;DHT22;13866;50.748;12.630;2024-01-16T04:09:03;-0.50;1.00
26107;DHT22;13866;50.748;12.630;2024-01-16T04:11:29;-0.50;1.00
26107;DHT22;13866;50.748;12.630;2024-01-16T04:13:55;-0.50;1.00
26107;DHT22;13866;50.748;12.630;2024-01-16T04:16:20;-0.50;1.00
26107;DHT22;13866;50.748;12.630;2024-01-16T04:18:46;-0.50;1.00
26107;DHT22;13866;50.748;12.630;2024-01-16T04:21:12;-0.50;1.00
26107;DHT22;13866;50.748;12.630;2024-01-16T04:23:38;-0.50;1.00
26107;DHT22;13866;50.748;12.630;2024-01-16T04:26:03;-0.50;1.00
26107;DHT22;13866;50.748;12.630;2024-01-16T04:28:29;-0.50;1.00
26107;DHT22;13866;50.748;12.630;2024-01-16T04:30:55;-0.50;1.00
26107;DHT22;13866;50.748;12.630;2024-01-16T04:33:20;-0.50;1.00
26107;DHT22;13866;50.748;12.630;2024-01-16T04:35:47;-0.50;1.00
26107;DHT22;13866;50.748;12.630;2024-01-16T04:38:12;-0.50;1.00
26107;DHT22;13866;50.748;12.630;2024-01-16T04:40:38;-0.50;1.00
26107;DHT22;13866;50.748;12.630;2024-01-16T04:43:03;-0.50;1.00
26107;DHT22;13866;50.748;12.630;2024-01-16T04:45:29;-0.50;1.00
26107;DHT22;13866;50.748;12.630;2024-01-16T04:47:54;-0.50;1.00
26107;DHT22;13866;50.748;12.630;2024-01-16T04:50:20;-0.50;1.00
26107;DHT22;13866;50.748;12.630;2024-01-16T04:52:45;-0.50;1.00
26107;DHT22;13866;50.748;12.630;2024-01-16T04:55:11;-0.50;1.00
26107;DHT22;13866;50.748;12.630;2024-01-16T04:57:36;-0.60;1.00
26107;DHT22;13866;50.748;12.630;2024-01-16T05:00:02;-0.70;1.00
26107;DHT22;13866;50.748;12.630;2024-01-16T05:02:32;-0.80;1.00
26107;DHT22;13866;50.748;12.630;2024-01-16T05:04:59;-0.90;99.90
26107;DHT22;13866;50.748;12.630;2024-01-16T05:07:24;-0.90;99.90
26107;DHT22;13866;50.748;12.630;2024-01-16T05:09:50;-1.00;99.90
26107;DHT22;13866;50.748;12.630;2024-01-16T05:12:15;-1.00;99.90
26107;DHT22;13866;50.748;12.630;2024-01-16T05:14:41;-1.10;99.90
26107;DHT22;13866;50.748;12.630;2024-01-16T05:17:06;-1.10;99.90
26107;DHT22;13866;50.748;12.630;2024-01-16T05:19:32;-1.10;99.90
26107;DHT22;13866;50.748;12.630;2024-01-16T05:21:57;-1.10;99.90
26107;DHT22;13866;50.748;12.630;2024-01-16T05:24:23;-1.10;99.90
26107;DHT22;13866;50.748;12.630;2024-01-16T05:26:48;-1.10;99.90
26107;DHT22;13866;50.748;12.630;2024-01-16T05:29:14;-1.20;99.90
26107;DHT22;13866;50.748;12.630;2024-01-16T05:31:40;-1.20;1.00
26107;DHT22;13866;50.748;12.630;2024-01-16T05:34:06;-1.20;1.00
26107;DHT22;13866;50.748;12.630;2024-01-16T05:36:32;-1.20;99.90
26107;DHT22;13866;50.748;12.630;2024-01-16T05:38:57;-1.20;1.00
26107;DHT22;13866;50.748;12.630;2024-01-16T05:41:23;-1.20;1.00
26107;DHT22;13866;50.748;12.630;2024-01-16T05:43:48;-1.20;1.00
26107;DHT22;13866;50.748;12.630;2024-01-16T05:46:14;-1.20;99.90
26107;DHT22;13866;50.748;12.630;2024-01-16T05:48:39;-1.20;99.90
26107;DHT22;13866;50.748;12.630;2024-01-16T05:51:05;-1.20;1.00
26107;DHT22;13866;50.748;12.630;2024-01-16T05:53:30;-1.10;1.00
26107;DHT22;13866;50.748;12.630;2024-01-16T05:55:56;-1.10;1.00
26107;DHT22;13866;50.748;12.630;2024-01-16T05:58:22;-1.10;1.00
26107;DHT22;13866;50.748;12.630;2024-01-16T06:00:47;-1.00;1.00
26107;DHT22;13866;50.748;12.630;2024-01-16T06:03:13;-1.00;99.90
26107;DHT22;13866;50.748;12.630;2024-01-16T06:05:38;-1.00;99.90
26107;DHT22;13866;50.748;12.630;2024-01-16T06:08:04;-1.00;99.90
26107;DHT22;13866;50.748;12.630;2024-01-16T06:10:30;-1.00;99.90
26107;DHT22;13866;50.748;12.630;2024-01-16T06:12:55;-1.00;99.90
26107;DHT22;13866;50.748;12.630;2024-01-16T06:15:20;-1.10;99.90
26107;DHT22;13866;50.748;12.630;2024-01-16T06:17:46;-1.20;99.90
26107;DHT22;13866;50.748;12.630;2024-01-16T06:20:11;-1.20;92.50
26107;DHT22;13866;50.748;12.630;2024-01-16T06:22:37;-1.30;99.90
26107;DHT22;13866;50.748;12.630;2024-01-16T06:25:02;-1.40;70.90
26107;DHT22;13866;50.748;12.630;2024-01-16T06:27:28;-1.40;72.10
26107;DHT22;13866;50.748;12.630;2024-01-16T06:29:53;-1.50;67.50
26107;DHT22;13866;50.748;12.630;2024-01-16T06:32:19;-1.60;65.30
26107;DHT22;13866;50.748;12.630;2024-01-16T06:34:44;-1.70;74.80
26107;DHT22;13866;50.748;12.630;2024-01-16T06:37:10;-1.70;54.20
26107;DHT22;13866;50.748;12.630;2024-01-16T06:39:36;-1.70;52.30
26107;DHT22;13866;50.748;12.630;2024-01-16T06:42:02;-1.80;42.60
26107;DHT22;13866;50.748;12.630;2024-01-16T06:44:29;-1.80;29.60
26107;DHT22;13866;50.748;12.630;2024-01-16T06:46:55;-1.80;77.60
26107;DHT22;13866;50.748;12.630;2024-01-16T06:49:20;-1.80;75.80
26107;DHT22;13866;50.748;12.630;2024-01-16T06:51:46;-1.90;79.40
26107;DHT22;13866;50.748;12.630;2024-01-16T06:54:11;-1.80;59.20
26107;DHT22;13866;50.748;12.630;2024-01-16T06:56:36;-1.80;44.60
26107;DHT22;13866;50.748;12.630;2024-01-16T06:59:02;-1.80;40.80
26107;DHT22;13866;50.748;12.630;2024-01-16T07:01:28;-1.80;44.20
26107;DHT22;13866;50.748;12.630;2024-01-16T07:03:53;-1.70;35.40
26107;DHT22;13866;50.748;12.630;2024-01-16T07:06:19;-1.70;62.80
26107;DHT22;13866;50.748;12.630;2024-01-16T07:08:44;-1.70;44.40
26107;DHT22;13866;50.748;12.630;2024-01-16T07:11:10;-1.80;75.00
26107;DHT22;13866;50.748;12.630;2024-01-16T07:13:39;-1.70;67.70
26107;DHT22;13866;50.748;12.630;2024-01-16T07:16:04;-1.70;83.60
26107;DHT22;13866;50.748;12.630;2024-01-16T07:18:30;-1.70;90.00
26107;DHT22;13866;50.748;12.630;2024-01-16T07:20:55;-1.70;90.60
26107;DHT22;13866;50.748;12.630;2024-01-16T07:23:21;-1.70;82.00
26107;DHT22;13866;50.748;12.630;2024-01-16T07:25:46;-1.70;91.20
26107;DHT22;13866;50.748;12.630;2024-01-16T07:28:12;-1.60;68.10
26107;DHT22;13866;50.748;12.630;2024-01-16T07:30:37;-1.60;53.70
26107;DHT22;13866;50.748;12.630;2024-01-16T07:33:04;-1.60;67.50
26107;DHT22;13866;50.748;12.630;2024-01-16T07:35:29;-1.60;42.80
26107;DHT22;13866;50.748;12.630;2024-01-16T07:37:55;-1.60;60.40
26107;DHT22;13866;50.748;12.630;2024-01-16T07:40:20;-1.60;40.60
26107;DHT22;13866;50.748;12.630;2024-01-16T07:42:46;-1.60;51.90
26107;DHT22;13866;50.748;12.630;2024-01-16T07:45:12;-1.60;51.20
26107;DHT22;13866;50.748;12.630;2024-01-16T07:47:37;-1.50;51.40
26107;DHT22;13866;50.748;12.630;2024-01-16T07:50:03;-1.50;45.00
26107;DHT22;13866;50.748;12.630;2024-01-16T07:52:28;-1.50;98.30
26107;DHT22;13866;50.748;12.630;2024-01-16T07:54:54;-1.40;30.90
26107;DHT22;13866;50.748;12.630;2024-01-16T07:57:20;-1.50;56.80
26107;DHT22;13866;50.748;12.630;2024-01-16T07:59:46;-1.50;35.20
26107;DHT22;13866;50.748;12.630;2024-01-16T08:02:11;-1.50;37.10
26107;DHT22;13866;50.748;12.630;2024-01-16T08:04:37;-1.50;44.50
26107;DHT22;13866;50.748;12.630;2024-01-16T08:07:02;-1.40;56.40
26107;DHT22;13866;50.748;12.630;2024-01-16T08:09:28;-1.40;39.30
26107;DHT22;13866;50.748;12.630;2024-01-16T08:11:54;-1.50;27.40
26107;DHT22;13866;50.748;12.630;2024-01-16T08:14:19;-1.50;23.90
26107;DHT22;13866;50.748;12.630;2024-01-16T08:16:45;-1.40;63.00
26107;DHT22;13866;50.748;12.630;2024-01-16T08:19:10;-1.40;21.80
26107;DHT22;13866;50.748;12.630;2024-01-16T08:21:35;-1.40;3.70
26107;DHT22;13866;50.748;12.630;2024-01-16T08:24:01;-1.40;10.20
26107;DHT22;13866;50.748;12.630;2024-01-16T08:26:27;-1.50;21.70
26107;DHT22;13866;50.748;12.630;2024-01-16T08:28:53;-1.50;34.20
26107;DHT22;13866;50.748;12.630;2024-01-16T08:31:19;-1.40;45.60
26107;DHT22;13866;50.748;12.630;2024-01-16T08:33:45;-1.30;99.20
26107;DHT22;13866;50.748;12.630;2024-01-16T08:36:11;-1.20;37.10
26107;DHT22;13866;50.748;12.630;2024-01-16T08:38:36;-1.10;77.30
26107;DHT22;13866;50.748;12.630;2024-01-16T08:41:01;-1.10;49.40
26107;DHT22;13866;50.748;12.630;2024-01-16T08:43:32;-1.10;57.50
26107;DHT22;13866;50.748;12.630;2024-01-16T08:45:57;-1.10;52.10
26107;DHT22;13866;50.748;12.630;2024-01-16T08:48:22;-1.10;72.90
26107;DHT22;13866;50.748;12.630;2024-01-16T08:50:48;-1.00;77.90
26107;DHT22;13866;50.748;12.630;2024-01-16T08:53:13;-1.10;49.50
26107;DHT22;13866;50.748;12.630;2024-01-16T08:55:39;-1.00;71.60
26107;DHT22;13866;50.748;12.630;2024-01-16T08:58:04;-1.00;52.70
26107;DHT22;13866;50.748;12.630;2024-01-16T09:00:30;-0.90;56.10
26107;DHT22;13866;50.748;12.630;2024-01-16T09:02:56;-0.90;46.10
26107;DHT22;13866;50.748;12.630;2024-01-16T09:05:22;-0.90;25.40
26107;DHT22;13866;50.748;12.630;2024-01-16T09:07:50;-0.80;24.90
26107;DHT22;13866;50.748;12.630;2024-01-16T09:10:16;-0.80;26.60
26107;DHT22;13866;50.748;12.630;2024-01-16T09:12:42;-0.80;18.90
26107;DHT22;13866;50.748;12.630;2024-01-16T09:15:08;-0.70;1.00
26107;DHT22;13866;50.748;12.630;2024-01-16T09:17:33;-0.70;1.00
26107;DHT22;13866;50.748;12.630;2024-01-16T09:19:59;-0.70;1.00
26107;DHT22;13866;50.748;12.630;2024-01-16T09:22:24;-0.70;1.00
26107;DHT22;13866;50.748;12.630;2024-01-16T09:24:50;-0.80;1.00
26107;DHT22;13866;50.748;12.630;2024-01-16T09:27:15;-0.70;1.00
26107;DHT22;13866;50.748;12.630;2024-01-16T09:29:41;-0.70;1.00
26107;DHT22;13866;50.748;12.630;2024-01-16T09:32:07;-0.60;1.00
26107;DHT22;13866;50.748;12.630;2024-01-16T09:34:33;-0.50;1.00
26107;DHT22;13866;50.748;12.630;2024-01-16T09:36:58;-0.60;1.00
26107;DHT22;13866;50.748;12.630;2024-01-16T09:39:26;-0.50;1.00
26107;DHT22;13866;50.748;12.630;2024-01-16T09:41:51;-0.40;1.00
26107;DHT22;13866;50.748;12.630;2024-01-16T09:44:17;-0.20;1.00
26107;DHT22;13866;50.748;12.630;2024-01-16T09:46:44;0.00;1.00
26107;DHT22;13866;50.748;12.630;2024-01-16T09:49:14;0.10;1.00
26107;DHT22;13866;50.748;12.630;2024-01-16T09:51:41;0.00;1.00
26107;DHT22;13866;50.748;12.630;2024-01-16T09:54:07;0.10;1.00
26107;DHT22;13866;50.748;12.630;2024-01-16T09:56:35;0.20;1.00
26107;DHT22;13866;50.748;12.630;2024-01-16T09:59:05;0.30;1.00
26107;DHT22;13866;50.748;12.630;2024-01-16T10:01:33;0.40;1.00
26107;DHT22;13866;50.748;12.630;2024-01-16T10:03:59;0.40;1.00
26107;DHT22;13866;50.748;12.630;2024-01-16T10:06:27;0.40;1.00
26107;DHT22;13866;50.748;12.630;2024-01-16T10:08:53;0.50;1.00
26107;DHT22;13866;50.748;12.630;2024-01-16T10:11:18;0.60;1.00
26107;DHT22;13866;50.748;12.630;2024-01-16T10:13:47;0.60;1.00
26107;DHT22;13866;50.748;12.630;2024-01-16T10:16:13;0.60;1.00
26107;DHT22;13866;50.748;12.630;2024-01-16T10:18:38;0.60;1.00
26107;DHT22;13866;50.748;12.630;2024-01-16T10:21:04;0.50;1.00
26107;DHT22;13866;50.748;12.630;2024-01-16T10:23:31;0.50;1.00
26107;DHT22;13866;50.748;12.630;2024-01-16T10:26:08;0.60;1.00
26107;DHT22;13866;50.748;12.630;2024-01-16T10:28:34;0.60;1.00
26107;DHT22;13866;50.748;12.630;2024-01-16T10:31:04;0.50;1.00
26107;DHT22;13866;50.748;12.630;2024-01-16T10:33:30;0.60;1.00
26107;DHT22;13866;50.748;12.630;2024-01-16T10:36:15;0.70;1.00
26107;DHT22;13866;50.748;12.630;2024-01-16T10:38:46;0.70;1.00
26107;DHT22;13866;50.748;12.630;2024-01-16T10:41:16;0.70;1.00
26107;DHT22;13866;50.748;12.630;2024-01-16T10:44:03;0.70;1.00
26107;DHT22;13866;50.748;12.630;2024-01-16T10:46:29;0.70;1.00
26107;DHT22;13866;50.748;12.630;2024-01-16T10:49:04;0.70;1.00
26107;DHT22;13866;50.748;12.630;2024-01-16T10:51:31;0.50;1.00
26107;DHT22;13866;50.748;12.630;2024-01-16T10:54:02;0.60;1.00
26107;DHT22;13866;50.748;12.630;2024-01-16T10:56:29;0.70;1.00
26107;DHT22;13866;50.748;12.630;2024-01-16T10:59:23;0.80;1.00
26107;DHT22;13866;50.748;12.630;2024-01-16T11:01:51;0.70;1.00
26107;DHT22;13866;50.748;12.630;2024-01-16T11:04:23;0.80;1.00
26107;DHT22;13866;50.748;12.630;2024-01-16T11:06:51;1.00;1.00
26107;DHT22;13866;50.748;12.630;2024-01-16T11:09:18;1.10;1.00
26107;DHT22;13866;50.748;12.630;2024-01-16T11:11:44;1.10;1.00
26107;DHT22;13866;50.748;12.630;2024-01-16T11:14:12;1.10;1.00
26107;DHT22;13866;50.748;12.630;2024-01-16T11:16:39;1.00;1.00
26107;DHT22;13866;50.748;12.630;2024-01-16T11:19:08;1.00;1.00
26107;DHT22;13866;50.748;12.630;2024-01-16T11:21:37;1.00;1.00
26107;DHT22;13866;50.748;12.630;2024-01-16T11:24:04;1.00;1.00
26107;DHT22;13866;50.748;12.630;2024-01-16T11:26:34;1.00;1.00
26107;DHT22;13866;50.748;12.630;2024-01-16T11:31:52;0.80;1.00
26107;DHT22;13866;50.748;12.630;2024-01-16T11:37:13;0.90;1.00
26107;DHT22;13866;50.748;12.630;2024-01-16T11:39:39;1.00;1.00
26107;DHT22;13866;50.748;12.630;2024-01-16T11:42:06;1.00;99.90
26107;DHT22;13866;50.748;12.630;2024-01-16T11:44:49;1.00;99.90
26107;DHT22;13866;50.748;12.630;2024-01-16T11:47:22;1.00;99.90
26107;DHT22;13866;50.748;12.630;2024-01-16T11:49:52;1.20;99.90
26107;DHT22;13866;50.748;12.630;2024-01-16T11:52:40;1.20;99.90
26107;DHT22;13866;50.748;12.630;2024-01-16T11:55:32;1.40;99.90
26107;DHT22;13866;50.748;12.630;2024-01-16T11:58:05;1.20;99.90
26107;DHT22;13866;50.748;12.630;2024-01-16T12:00:35;1.30;99.90
26107;DHT22;13866;50.748;12.630;2024-01-16T12:03:02;1.40;99.90
26107;DHT22;13866;50.748;12.630;2024-01-16T12:05:29;1.40;99.90
26107;DHT22;13866;50.748;12.630;2024-01-16T12:07:54;1.30;99.90
26107;DHT22;13866;50.748;12.630;2024-01-16T12:10:22;1.40;99.90
26107;DHT22;13866;50.748;12.630;2024-01-16T12:12:49;1.50;1.00
26107;DHT22;13866;50.748;12.630;2024-01-16T12:15:19;1.60;99.90
26107;DHT22;13866;50.748;12.630;2024-01-16T12:17:59;1.40;99.90
26107;DHT22;13866;50.748;12.630;2024-01-16T12:20:27;1.30;1.00
26107;DHT22;13866;50.748;12.630;2024-01-16T12:22:57;1.30;99.90
26107;DHT22;13866;50.748;12.630;2024-01-16T12:25:24;1.30;99.90
26107;DHT22;13866;50.748;12.630;2024-01-16T12:28:03;1.20;99.90
26107;DHT22;13866;50.748;12.630;2024-01-16T12:30:36;1.10;99.90
26107;DHT22;13866;50.748;12.630;2024-01-16T12:33:06;1.10;1.00
26107;DHT22;13866;50.748;12.630;2024-01-16T12:35:36;1.00;1.00
26107;DHT22;13866;50.748;12.630;2024-01-16T12:38:03;0.90;99.90
26107;DHT22;13866;50.748;12.630;2024-01-16T12:40:31;0.90;99.90
26107;DHT22;13866;50.748;12.630;2024-01-16T12:42:57;0.80;99.90
26107;DHT22;13866;50.748;12.630;2024-01-16T12:45:23;0.70;99.90
26107;DHT22;13866;50.748;12.630;2024-01-16T12:47:52;0.70;99.90
26107;DHT22;13866;50.748;12.630;2024-01-16T12:50:22;0.60;99.90
26107;DHT22;13866;50.748;12.630;2024-01-16T12:52:49;0.60;99.90
26107;DHT22;13866;50.748;12.630;2024-01-16T12:55:16;0.70;99.90
26107;DHT22;13866;50.748;12.630;2024-01-16T12:57:43;0.70;99.90
26107;DHT22;13866;50.748;12.630;2024-01-16T13:00:24;0.70;99.90
26107;DHT22;13866;50.748;12.630;2024-01-16T13:02:53;0.80;1.00
26107;DHT22;13866;50.748;12.630;2024-01-16T13:05:22;0.90;99.90
26107;DHT22;13866;50.748;12.630;2024-01-16T13:08:00;0.90;99.90
26107;DHT22;13866;50.748;12.630;2024-01-16T13:10:28;0.90;99.90
26107;DHT22;13866;50.748;12.630;2024-01-16T13:13:12;0.80;99.90
26107;DHT22;13866;50.748;12.630;2024-01-16T13:15:38;0.80;99.90
26107;DHT22;13866;50.748;12.630;2024-01-16T13:18:04;0.80;99.90
26107;DHT22;13866;50.748;12.630;2024-01-16T13:20:29;0.90;99.90
26107;DHT22;13866;50.748;12.630;2024-01-16T13:22:55;0.90;99.90
26107;DHT22;13866;50.748;12.630;2024-01-16T13:25:21;0.90;1.00
26107;DHT22;13866;50.748;12.630;2024-01-16T13:27:46;0.90;1.00
26107;DHT22;13866;50.748;12.630;2024-01-16T13:30:12;0.90;1.00
26107;DHT22;13866;50.748;12.630;2024-01-16T13:32:38;0.80;1.00
26107;DHT22;13866;50.748;12.630;2024-01-16T13:35:03;0.70;1.00
26107;DHT22;13866;50.748;12.630;2024-01-16T13:37:33;0.60;1.00
26107;DHT22;13866;50.748;12.630;2024-01-16T13:40:03;0.60;1.00
26107;DHT22;13866;50.748;12.630;2024-01-16T13:42:28;0.60;1.00
26107;DHT22;13866;50.748;12.630;2024-01-16T13:44:54;0.50;1.00
26107;DHT22;13866;50.748;12.630;2024-01-16T13:47:19;0.40;1.00
26107;DHT22;13866;50.748;12.630;2024-01-16T13:49:45;0.40;1.00
26107;DHT22;13866;50.748;12.630;2024-01-16T13:52:10;0.40;1.00
26107;DHT22;13866;50.748;12.630;2024-01-16T13:54:37;0.40;1.00
26107;DHT22;13866;50.748;12.630;2024-01-16T13:57:04;0.40;1.00
26107;DHT22;13866;50.748;12.630;2024-01-16T13:59:29;0.40;1.00
26107;DHT22;13866;50.748;12.630;2024-01-16T14:01:54;0.40;1.00
26107;DHT22;13866;50.748;12.630;2024-01-16T14:04:20;0.40;1.00
26107;DHT22;13866;50.748;12.630;2024-01-16T14:06:46;0.40;1.00
26107;DHT22;13866;50.748;12.630;2024-01-16T14:09:11;0.40;1.00
26107;DHT22;13866;50.748;12.630;2024-01-16T14:11:39;0.40;1.00
26107;DHT22;13866;50.748;12.630;2024-01-16T14:14:04;0.40;1.00
26107;DHT22;13866;50.748;12.630;2024-01-16T14:16:30;0.40;1.00
26107;DHT22;13866;50.748;12.630;2024-01-16T14:18:56;0.40;1.00
26107;DHT22;13866;50.748;12.630;2024-01-16T14:21:21;0.40;1.00
26107;DHT22;13866;50.748;12.630;2024-01-16T14:23:47;0.30;99.90
26107;DHT22;13866;50.748;12.630;2024-01-16T14:26:12;0.20;1.00
26107;DHT22;13866;50.748;12.630;2024-01-16T14:28:37;0.20;99.90
26107;DHT22;13866;50.748;12.630;2024-01-16T14:31:03;0.10;99.90
26107;DHT22;13866;50.748;12.630;2024-01-16T14:33:29;0.00;99.90
26107;DHT22;13866;50.748;12.630;2024-01-16T14:35:55;0.00;1.00
26107;DHT22;13866;50.748;12.630;2024-01-16T14:38:21;-0.10;1.00
26107;DHT22;13866;50.748;12.630;2024-01-16T14:40:46;-0.10;99.90
26107;DHT22;13866;50.748;12.630;2024-01-16T14:43:12;-0.10;1.00
26107;DHT22;13866;50.748;12.630;2024-01-16T14:45:37;-0.20;1.00
26107;DHT22;13866;50.748;12.630;2024-01-16T14:48:03;-0.20;1.00
26107;DHT22;13866;50.748;12.630;2024-01-16T14:50:29;-0.20;1.00
26107;DHT22;13866;50.748;12.630;2024-01-16T14:52:55;-0.20;1.00
26107;DHT22;13866;50.748;12.630;2024-01-16T14:55:22;-0.30;1.00
26107;DHT22;13866;50.748;12.630;2024-01-16T14:57:48;-0.20;99.90
26107;DHT22;13866;50.748;12.630;2024-01-16T15:00:18;-0.20;1.00
26107;DHT22;13866;50.748;12.630;2024-01-16T15:02:55;-0.30;99.90
26107;DHT22;13866;50.748;12.630;2024-01-16T15:05:20;-0.20;99.90
26107;DHT22;13866;50.748;12.630;2024-01-16T15:07:47;-0.20;99.90
26107;DHT22;13866;50.748;12.630;2024-01-16T15:10:13;-0.30;99.90
26107;DHT22;13866;50.748;12.630;2024-01-16T15:12:40;-0.30;1.00
26107;DHT22;13866;50.748;12.630;2024-01-16T15:15:07;-0.30;1.00
26107;DHT22;13866;50.748;12.630;2024-01-16T15:17:33;-0.30;1.00
26107;DHT22;13866;50.748;12.630;2024-01-16T15:19:59;-0.30;1.00
26107;DHT22;13866;50.748;12.630;2024-01-16T15:22:24;-0.40;1.00
26107;DHT22;13866;50.748;12.630;2024-01-16T15:24:50;-0.40;1.00
26107;DHT22;13866;50.748;12.630;2024-01-16T15:27:15;-0.40;1.00
26107;DHT22;13866;50.748;12.630;2024-01-16T15:29:41;-0.50;99.90
26107;DHT22;13866;50.748;12.630;2024-01-16T15:32:07;-0.50;1.00
26107;DHT22;13866;50.748;12.630;2024-01-16T15:34:32;-0.50;1.00
26107;DHT22;13866;50.748;12.630;2024-01-16T15:36:58;-0.50;1.00
26107;DHT22;13866;50.748;12.630;2024-01-16T15:39:24;-0.60;1.00
26107;DHT22;13866;50.748;12.630;2024-01-16T15:41:49;-0.60;1.00
26107;DHT22;13866;50.748;12.630;2024-01-16T15:44:15;-0.60;1.00
26107;DHT22;13866;50.748;12.630;2024-01-16T15:47:02;-0.60;1.00
26107;DHT22;13866;50.748;12.630;2024-01-16T15:49:31;-0.60;1.00
26107;DHT22;13866;50.748;12.630;2024-01-16T15:51:57;-0.60;1.00